createdAt,value
2017-11-05T00:00:36.199Z,55.60
2017-11-05T00:01:41.941Z,55.70
2017-11-05T00:02:47.111Z,55.60
2017-11-05T00:03:52.179Z,55.60
2017-11-05T00:04:57.384Z,55.60
2017-11-05T00:06:03.205Z,55.70
2017-11-05T00:07:08.736Z,55.70
2017-11-05T00:08:14.123Z,55.70
2017-11-05T00:09:19.308Z,55.70
2017-11-05T00:10:24.274Z,55.70
2017-11-05T00:11:29.404Z,55.70
2017-11-05T00:12:34.959Z,55.70
2017-11-05T00:13:40.220Z,55.80
2017-11-05T00:14:45.197Z,55.70
2017-11-05T00:15:50.370Z,55.80
2017-11-05T00:16:55.487Z,55.80
2017-11-05T00:18:00.661Z,55.80
2017-11-05T00:19:06.599Z,55.80
2017-11-05T00:20:11.566Z,55.80
2017-11-05T00:21:16.706Z,55.80
2017-11-05T00:22:21.980Z,55.80
2017-11-05T00:23:27.273Z,55.80
2017-11-05T00:24:32.540Z,55.90
2017-11-05T00:25:38.367Z,55.90
2017-11-05T00:26:43.571Z,55.90
2017-11-05T00:27:48.766Z,55.90
2017-11-05T00:28:54.139Z,55.90
2017-11-05T00:30:00.226Z,55.90
2017-11-05T00:31:05.412Z,55.90
2017-11-05T00:32:10.563Z,55.90
2017-11-05T00:33:15.906Z,55.90
2017-11-05T00:34:20.980Z,55.90
2017-11-05T00:35:27.017Z,56.00
2017-11-05T00:36:32.209Z,56.00
2017-11-05T00:37:37.730Z,55.90
2017-11-05T00:38:42.992Z,55.90
2017-11-05T00:39:48.110Z,56.00
2017-11-05T00:40:53.403Z,56.00
2017-11-05T00:41:58.186Z,56.00
2017-11-05T00:43:02.878Z,56.00
2017-11-05T00:44:07.598Z,56.00
2017-11-05T00:45:12.516Z,56.00
2017-11-05T00:46:17.320Z,56.00
2017-11-05T00:47:21.983Z,56.00
2017-11-05T00:48:26.771Z,56.10
2017-11-05T00:49:31.476Z,56.00
2017-11-05T00:50:36.271Z,56.10
2017-11-05T00:51:41.071Z,56.20
2017-11-05T00:52:45.788Z,56.10
2017-11-05T00:53:50.398Z,56.10
2017-11-05T00:54:55.100Z,56.10
2017-11-05T00:55:59.933Z,56.10
2017-11-05T00:57:04.702Z,56.20
2017-11-05T00:58:09.332Z,56.20
2017-11-05T00:59:14.093Z,56.20
2017-11-05T01:00:18.857Z,56.20
2017-11-05T01:01:23.690Z,56.20
2017-11-05T01:02:28.302Z,56.30
2017-11-05T01:03:32.970Z,56.30
2017-11-05T01:04:37.842Z,56.20
2017-11-05T01:05:42.597Z,56.30
2017-11-05T01:06:47.325Z,56.30
2017-11-05T01:07:52.147Z,56.30
2017-11-05T01:08:56.983Z,56.30
2017-11-05T01:10:01.806Z,56.30
2017-11-05T01:11:06.521Z,56.30
2017-11-05T01:12:11.217Z,56.30
2017-11-05T01:13:15.993Z,56.30
2017-11-05T01:14:20.751Z,56.40
2017-11-05T01:15:25.320Z,56.30
2017-11-05T01:16:29.993Z,56.30
2017-11-05T01:17:34.665Z,56.30
2017-11-05T01:18:39.400Z,56.30
2017-11-05T01:19:44.224Z,56.40
2017-11-05T01:20:49.059Z,56.40
2017-11-05T01:21:54.010Z,56.40
2017-11-05T01:22:58.839Z,56.40
2017-11-05T01:24:03.529Z,56.40
2017-11-05T01:25:08.410Z,56.40
2017-11-05T01:26:13.069Z,56.40
2017-11-05T01:27:17.680Z,56.40
2017-11-05T01:28:22.324Z,56.40
2017-11-05T01:29:27.067Z,56.40
2017-11-05T01:30:31.817Z,56.40
2017-11-05T01:31:36.448Z,56.40
2017-11-05T01:32:41.185Z,56.50
2017-11-05T01:33:45.915Z,56.50
2017-11-05T01:34:50.497Z,56.50
2017-11-05T01:35:55.290Z,56.50
2017-11-05T01:37:00.084Z,56.50
2017-11-05T01:38:04.903Z,56.50
2017-11-05T01:39:09.853Z,56.50
2017-11-05T01:40:14.596Z,56.50
2017-11-05T01:41:19.307Z,56.50
2017-11-05T01:42:24.108Z,56.50
2017-11-05T01:43:28.905Z,56.50
2017-11-05T01:44:33.627Z,56.50
2017-11-05T01:45:38.408Z,56.50
2017-11-05T01:46:43.302Z,56.50
2017-11-05T01:47:47.971Z,56.50
2017-11-05T01:48:52.811Z,56.50
2017-11-05T01:49:57.382Z,56.50
2017-11-05T01:51:02.171Z,56.50
2017-11-05T01:52:06.919Z,56.50
2017-11-05T01:53:11.646Z,56.50
2017-11-05T01:54:16.489Z,56.50
2017-11-05T01:55:21.369Z,56.50
2017-11-05T01:56:26.169Z,56.50
2017-11-05T01:57:30.902Z,57.20
2017-11-05T01:58:35.652Z,56.60
2017-11-05T01:59:40.473Z,56.60
2017-11-05T02:00:45.145Z,56.60
2017-11-05T02:01:49.973Z,56.60
2017-11-05T02:02:54.685Z,56.60
2017-11-05T02:03:59.297Z,56.60
2017-11-05T02:05:04.016Z,56.60
2017-11-05T02:06:08.763Z,56.60
2017-11-05T02:07:13.459Z,56.60
2017-11-05T02:08:18.074Z,56.60
2017-11-05T02:09:22.733Z,56.60
2017-11-05T02:10:27.334Z,56.60
2017-11-05T02:11:32.091Z,56.60
2017-11-05T02:12:36.914Z,56.60
2017-11-05T02:13:41.682Z,56.60
2017-11-05T02:14:46.545Z,56.60
2017-11-05T02:15:51.134Z,56.70
2017-11-05T02:16:55.956Z,56.70
2017-11-05T02:18:00.821Z,56.70
2017-11-05T02:19:05.431Z,56.70
2017-11-05T02:20:10.281Z,56.70
2017-11-05T02:21:15.166Z,56.70
2017-11-05T02:22:19.894Z,56.70
2017-11-05T02:23:24.783Z,56.70
2017-11-05T02:24:29.387Z,56.70
2017-11-05T02:25:34.115Z,56.70
2017-11-05T02:26:38.694Z,56.70
2017-11-05T02:27:43.417Z,56.70
2017-11-05T02:28:48.010Z,56.70
2017-11-05T02:29:52.838Z,56.70
2017-11-05T02:30:57.432Z,56.70
2017-11-05T02:32:02.120Z,56.70
2017-11-05T02:33:06.765Z,56.70
2017-11-05T02:34:11.658Z,56.70
2017-11-05T02:35:16.542Z,56.70
2017-11-05T02:36:21.407Z,56.70
2017-11-05T02:37:26.040Z,56.70
2017-11-05T02:38:30.770Z,56.70
2017-11-05T02:39:35.547Z,56.70
2017-11-05T02:40:40.417Z,56.80
2017-11-05T02:41:45.116Z,56.80
2017-11-05T02:42:49.782Z,56.80
2017-11-05T02:43:54.626Z,56.80
2017-11-05T02:44:59.309Z,56.80
2017-11-05T02:46:03.882Z,56.80
2017-11-05T02:47:08.472Z,56.80
2017-11-05T02:48:13.394Z,56.80
2017-11-05T02:49:18.152Z,56.80
2017-11-05T02:50:22.853Z,56.80
2017-11-05T02:51:27.615Z,56.80
2017-11-05T02:52:32.374Z,56.80
2017-11-05T02:53:36.981Z,56.80
2017-11-05T02:54:41.718Z,56.80
2017-11-05T02:55:46.297Z,56.80
2017-11-05T02:56:50.908Z,56.80
2017-11-05T02:57:55.578Z,56.80
2017-11-05T02:59:00.414Z,56.80
2017-11-05T03:00:05.127Z,56.80
2017-11-05T03:01:09.941Z,56.80
2017-11-05T03:02:14.613Z,56.80
2017-11-05T03:03:19.334Z,56.80
2017-11-05T03:04:23.909Z,56.90
2017-11-05T03:05:28.770Z,56.90
2017-11-05T03:06:33.561Z,56.90
2017-11-05T03:07:38.295Z,56.90
2017-11-05T03:08:42.910Z,56.90
2017-11-05T03:09:47.654Z,56.90
2017-11-05T03:10:52.533Z,56.90
2017-11-05T03:11:57.289Z,56.90
2017-11-05T03:13:01.936Z,56.90
2017-11-05T03:14:06.606Z,56.90
2017-11-05T03:15:11.362Z,56.90
2017-11-05T03:16:15.956Z,56.90
2017-11-05T03:17:20.693Z,56.90
2017-11-05T03:18:25.555Z,56.90
2017-11-05T03:19:30.158Z,56.90
2017-11-05T03:20:34.836Z,56.90
2017-11-05T03:21:39.466Z,56.90
2017-11-05T03:22:44.133Z,56.90
2017-11-05T03:23:48.848Z,56.90
2017-11-05T03:24:53.709Z,56.90
2017-11-05T03:25:58.405Z,56.90
2017-11-05T03:27:03.101Z,56.90
2017-11-05T03:28:07.882Z,56.90
2017-11-05T03:29:12.532Z,56.90
2017-11-05T03:30:17.189Z,56.90
2017-11-05T03:31:21.835Z,56.90
2017-11-05T03:32:26.593Z,56.90
2017-11-05T03:33:31.326Z,56.90
2017-11-05T03:34:36.026Z,57.00
2017-11-05T03:35:40.732Z,56.90
2017-11-05T03:36:45.293Z,56.90
2017-11-05T03:37:50.127Z,56.90
2017-11-05T03:38:55.050Z,56.90
2017-11-05T03:39:59.664Z,56.90
2017-11-05T03:41:04.491Z,56.90
2017-11-05T03:42:09.218Z,56.90
2017-11-05T03:43:14.003Z,57.00
2017-11-05T03:44:18.730Z,57.00
2017-11-05T03:45:23.569Z,57.00
2017-11-05T03:46:28.104Z,57.00
2017-11-05T03:47:32.726Z,57.00
2017-11-05T03:48:37.489Z,57.00
2017-11-05T03:49:42.229Z,57.00
2017-11-05T03:50:46.772Z,57.00
2017-11-05T03:51:51.372Z,57.00
2017-11-05T03:52:56.111Z,57.00
2017-11-05T03:54:00.840Z,57.00
2017-11-05T03:55:05.770Z,57.00
2017-11-05T03:56:10.535Z,57.00
2017-11-05T03:57:15.278Z,57.00
2017-11-05T03:58:20.028Z,57.00
2017-11-05T03:59:24.664Z,57.00
2017-11-05T04:00:29.492Z,57.00
2017-11-05T04:01:34.196Z,57.00
2017-11-05T04:02:39.010Z,57.00
2017-11-05T04:03:43.743Z,57.00
2017-11-05T04:04:48.426Z,57.00
2017-11-05T04:05:53.315Z,57.00
2017-11-05T04:06:57.885Z,57.10
2017-11-05T04:08:02.637Z,57.10
2017-11-05T04:09:07.321Z,57.10
2017-11-05T04:10:11.936Z,57.10
2017-11-05T04:11:16.537Z,57.10
2017-11-05T04:12:21.285Z,57.10
2017-11-05T04:13:26.045Z,57.10
2017-11-05T04:14:30.876Z,57.10
2017-11-05T04:15:35.494Z,57.10
2017-11-05T04:16:40.240Z,57.10
2017-11-05T04:17:44.810Z,57.10
2017-11-05T04:18:49.499Z,57.10
2017-11-05T04:19:54.172Z,57.10
2017-11-05T04:20:58.861Z,57.10
2017-11-05T04:22:04.002Z,57.10
2017-11-05T04:23:08.866Z,57.10
2017-11-05T04:24:13.811Z,57.10
2017-11-05T04:25:18.934Z,57.20
2017-11-05T04:26:24.169Z,57.10
2017-11-05T04:27:30.151Z,57.20
2017-11-05T04:28:35.109Z,57.10
2017-11-05T04:29:40.333Z,57.10
2017-11-05T04:30:45.322Z,57.10
2017-11-05T04:31:50.340Z,57.10
2017-11-05T04:32:55.515Z,57.00
2017-11-05T04:34:00.363Z,57.10
2017-11-05T04:35:05.310Z,57.10
2017-11-05T04:36:10.336Z,57.00
2017-11-05T04:37:15.423Z,57.00
2017-11-05T04:38:21.646Z,57.00
2017-11-05T04:39:26.766Z,57.00
2017-11-05T04:40:31.989Z,57.00
2017-11-05T04:41:36.966Z,57.00
2017-11-05T04:42:42.144Z,57.00
2017-11-05T04:43:47.106Z,57.00
2017-11-05T04:44:52.064Z,57.00
2017-11-05T04:45:57.094Z,57.00
2017-11-05T04:47:02.013Z,57.00
2017-11-05T04:48:06.978Z,57.00
2017-11-05T04:49:12.330Z,57.00
2017-11-05T04:50:17.498Z,57.10
2017-11-05T04:51:22.420Z,57.00
2017-11-05T04:52:27.483Z,57.00
2017-11-05T04:53:32.494Z,57.00
2017-11-05T04:54:37.405Z,57.00
2017-11-05T04:55:42.478Z,57.00
2017-11-05T04:56:47.826Z,57.00
2017-11-05T04:57:52.792Z,57.00
2017-11-05T04:58:57.712Z,57.10
2017-11-05T05:00:02.811Z,57.10
2017-11-05T05:01:07.856Z,57.00
2017-11-05T05:02:13.036Z,57.00
2017-11-05T05:03:17.854Z,57.10
2017-11-05T05:04:22.913Z,57.10
2017-11-05T05:05:28.041Z,57.10
2017-11-05T05:06:33.090Z,57.10
2017-11-05T05:07:38.152Z,57.10
2017-11-05T05:08:43.354Z,57.10
2017-11-05T05:09:48.453Z,57.10
2017-11-05T05:10:53.841Z,57.10
2017-11-05T05:11:58.857Z,57.20
2017-11-05T05:13:03.782Z,57.10
2017-11-05T05:14:08.791Z,57.20
2017-11-05T05:15:13.957Z,57.10
2017-11-05T05:16:19.133Z,57.10
2017-11-05T05:17:24.112Z,57.10
2017-11-05T05:18:29.196Z,57.20
2017-11-05T05:19:35.101Z,57.10
2017-11-05T05:20:40.494Z,57.20
2017-11-05T05:21:45.457Z,57.10
2017-11-05T05:22:50.398Z,57.10
2017-11-05T05:23:55.458Z,57.10
2017-11-05T05:25:00.401Z,57.10
2017-11-05T05:26:05.433Z,57.20
2017-11-05T05:27:10.604Z,57.10
2017-11-05T05:28:15.619Z,57.10
2017-11-05T05:29:20.725Z,57.10
2017-11-05T05:30:26.067Z,57.20
2017-11-05T05:31:31.737Z,57.10
2017-11-05T05:32:36.908Z,57.20
2017-11-05T05:33:42.056Z,57.20
2017-11-05T05:34:47.041Z,57.10
2017-11-05T05:35:52.268Z,57.20
2017-11-05T05:36:57.422Z,57.40
2017-11-05T05:38:02.859Z,57.60
2017-11-05T05:39:07.990Z,57.80
2017-11-05T05:40:13.055Z,57.80
2017-11-05T05:41:18.004Z,57.80
2017-11-05T05:42:23.160Z,57.80
2017-11-05T05:43:28.734Z,57.70
2017-11-05T05:44:33.580Z,57.70
2017-11-05T05:45:38.636Z,57.60
2017-11-05T05:46:43.522Z,57.50
2017-11-05T05:47:48.394Z,57.50
2017-11-05T05:48:54.644Z,57.50
2017-11-05T05:49:59.441Z,57.60
2017-11-05T05:51:04.809Z,57.60
2017-11-05T05:52:09.664Z,57.80
2017-11-05T05:53:14.583Z,57.80
2017-11-05T05:54:20.414Z,57.80
2017-11-05T05:55:25.384Z,57.90
2017-11-05T05:56:30.544Z,58.00
2017-11-05T05:57:35.502Z,58.00
2017-11-05T05:58:40.500Z,58.00
2017-11-05T05:59:45.544Z,58.00
2017-11-05T06:00:51.155Z,58.00
2017-11-05T06:01:56.052Z,58.10
2017-11-05T06:03:01.221Z,58.00
2017-11-05T06:04:06.460Z,58.10
2017-11-05T06:05:11.510Z,58.10
2017-11-05T06:06:16.701Z,58.10
2017-11-05T06:07:21.649Z,58.10
2017-11-05T06:08:26.827Z,58.00
2017-11-05T06:09:32.231Z,57.90
2017-11-05T06:10:37.352Z,58.00
2017-11-05T06:11:43.242Z,58.20
2017-11-05T06:12:48.263Z,58.30
2017-11-05T06:13:53.180Z,58.50
2017-11-05T06:14:58.273Z,58.40
2017-11-05T06:16:03.435Z,58.40
2017-11-05T06:17:08.289Z,58.30
2017-11-05T06:18:13.237Z,58.10
2017-11-05T06:19:18.308Z,58.00
2017-11-05T06:20:23.603Z,58.00
2017-11-05T06:21:28.483Z,57.00
2017-11-05T06:22:33.679Z,55.90
2017-11-05T06:23:39.131Z,55.40
2017-11-05T06:24:44.347Z,54.90
2017-11-05T06:25:49.457Z,54.70
2017-11-05T06:26:54.637Z,54.50
2017-11-05T06:27:59.564Z,54.40
2017-11-05T06:29:04.377Z,54.00
2017-11-05T06:30:10.181Z,54.00
2017-11-05T06:31:15.132Z,53.90
2017-11-05T06:32:20.140Z,53.80
2017-11-05T06:33:25.400Z,53.80
2017-11-05T06:34:30.565Z,53.80
2017-11-05T06:35:35.709Z,53.80
2017-11-05T06:36:40.899Z,53.60
2017-11-05T06:37:45.962Z,53.50
2017-11-05T06:38:51.098Z,53.30
2017-11-05T06:39:56.254Z,53.20
2017-11-05T06:41:02.494Z,53.20
2017-11-05T06:42:07.709Z,53.20
2017-11-05T06:43:12.911Z,53.10
2017-11-05T06:44:17.913Z,52.90
2017-11-05T06:45:23.068Z,53.10
2017-11-05T06:46:28.262Z,53.30
2017-11-05T06:47:33.526Z,53.60
2017-11-05T06:48:38.648Z,53.80
2017-11-05T06:49:43.480Z,53.80
2017-11-05T06:50:48.650Z,54.00
2017-11-05T06:51:53.701Z,54.00
2017-11-05T06:52:58.933Z,54.10
2017-11-05T06:54:04.024Z,54.30
2017-11-05T06:55:09.351Z,54.30
2017-11-05T06:56:14.470Z,54.50
2017-11-05T06:57:19.580Z,54.60
2017-11-05T06:58:24.837Z,54.60
2017-11-05T06:59:29.783Z,54.80
2017-11-05T07:00:34.862Z,54.70
2017-11-05T07:01:39.875Z,54.80
2017-11-05T07:02:44.887Z,54.90
2017-11-05T07:03:50.499Z,54.80
2017-11-05T07:04:55.816Z,54.80
2017-11-05T07:06:01.142Z,54.70
2017-11-05T07:07:06.228Z,54.60
2017-11-05T07:08:11.363Z,54.70
2017-11-05T07:09:16.446Z,54.50
2017-11-05T07:10:21.749Z,54.40
2017-11-05T07:11:27.044Z,54.40
2017-11-05T07:12:32.181Z,54.50
2017-11-05T07:13:37.240Z,54.50
2017-11-05T07:14:42.319Z,54.60
2017-11-05T07:15:47.716Z,55.30
2017-11-05T07:16:53.800Z,55.50
2017-11-05T07:17:58.934Z,55.70
2017-11-05T07:19:03.954Z,56.00
2017-11-05T07:20:09.049Z,56.10
2017-11-05T07:21:14.864Z,56.40
2017-11-05T07:22:20.215Z,56.50
2017-11-05T07:23:25.333Z,56.60
2017-11-05T07:24:30.673Z,56.70
2017-11-05T07:25:35.791Z,56.70
2017-11-05T07:26:41.133Z,56.70
2017-11-05T07:27:46.436Z,56.70
2017-11-05T07:28:51.676Z,57.00
2017-11-05T07:29:57.027Z,56.90
2017-11-05T07:31:02.324Z,56.80
2017-11-05T07:32:07.419Z,56.90
2017-11-05T07:33:12.663Z,56.90
2017-11-05T07:34:18.010Z,57.10
2017-11-05T07:35:23.051Z,57.20
2017-11-05T07:36:28.236Z,57.20
2017-11-05T07:37:33.471Z,57.20
2017-11-05T07:38:38.883Z,57.10
2017-11-05T07:39:44.028Z,57.10
2017-11-05T07:40:49.185Z,57.10
2017-11-05T07:41:54.225Z,57.00
2017-11-05T07:42:59.324Z,57.10
2017-11-05T07:44:04.456Z,57.10
2017-11-05T07:45:09.447Z,57.60
2017-11-05T07:46:14.718Z,57.10
2017-11-05T07:47:19.805Z,57.10
2017-11-05T07:48:24.803Z,57.10
2017-11-05T07:49:29.964Z,57.10
2017-11-05T07:50:35.182Z,57.20
2017-11-05T07:51:40.357Z,57.20
2017-11-05T07:52:45.650Z,57.10
2017-11-05T07:53:50.784Z,57.10
2017-11-05T07:54:55.890Z,57.10
2017-11-05T07:56:02.724Z,57.10
2017-11-05T07:57:08.047Z,57.20
2017-11-05T07:58:13.378Z,57.20
2017-11-05T07:59:18.829Z,57.20
2017-11-05T08:00:23.943Z,57.20
2017-11-05T08:01:28.851Z,57.10
2017-11-05T08:02:34.044Z,57.20
2017-11-05T08:03:39.391Z,57.10
2017-11-05T08:04:44.523Z,57.20
2017-11-05T08:05:49.761Z,57.30
2017-11-05T08:06:55.635Z,57.20
2017-11-05T08:08:00.615Z,57.20
2017-11-05T08:09:05.612Z,57.40
2017-11-05T08:10:10.875Z,57.30
2017-11-05T08:11:16.093Z,57.30
2017-11-05T08:12:21.921Z,57.40
2017-11-05T08:13:27.526Z,57.50
2017-11-05T08:14:32.495Z,57.40
2017-11-05T08:15:37.600Z,57.30
2017-11-05T08:16:42.803Z,57.00
2017-11-05T08:17:48.113Z,56.70
2017-11-05T08:18:53.226Z,56.50
2017-11-05T08:19:58.362Z,56.30
2017-11-05T08:21:03.663Z,56.30
2017-11-05T08:22:08.934Z,56.20
2017-11-05T08:23:14.247Z,56.40
2017-11-05T08:24:19.378Z,56.40
2017-11-05T08:25:24.630Z,56.50
2017-11-05T08:26:29.748Z,56.50
2017-11-05T08:27:35.044Z,56.40
2017-11-05T08:28:40.256Z,56.40
2017-11-05T08:29:50.329Z,56.50
2017-11-05T08:30:55.474Z,56.50
2017-11-05T08:32:00.586Z,56.40
2017-11-05T08:33:06.130Z,56.40
2017-11-05T08:34:11.849Z,56.40
2017-11-05T08:35:17.072Z,56.60
2017-11-05T08:36:22.353Z,57.00
2017-11-05T08:37:27.954Z,57.40
2017-11-05T08:38:33.201Z,57.60
2017-11-05T08:39:38.335Z,57.60
2017-11-05T08:40:43.666Z,57.90
2017-11-05T08:41:48.902Z,57.70
2017-11-05T08:42:54.244Z,57.80
2017-11-05T08:43:59.459Z,58.10
2017-11-05T08:45:06.084Z,58.10
2017-11-05T08:46:11.097Z,58.00
2017-11-05T08:47:16.499Z,58.00
2017-11-05T08:48:21.910Z,58.00
2017-11-05T08:49:26.918Z,58.00
2017-11-05T08:50:32.139Z,58.20
2017-11-05T08:51:37.357Z,58.50
2017-11-05T08:52:42.459Z,58.50
2017-11-05T08:53:47.598Z,58.40
2017-11-05T08:54:53.801Z,58.40
2017-11-05T08:55:59.693Z,58.30
2017-11-05T08:57:04.784Z,58.30
2017-11-05T08:58:10.060Z,58.20
2017-11-05T08:59:16.232Z,58.10
2017-11-05T09:00:23.624Z,58.20
2017-11-05T09:01:29.823Z,58.20
2017-11-05T09:02:36.150Z,58.30
2017-11-05T09:03:42.386Z,58.40
2017-11-05T09:04:48.500Z,58.30
2017-11-05T09:05:54.743Z,58.40
2017-11-05T09:07:00.704Z,58.40
2017-11-05T09:08:06.736Z,58.30
2017-11-05T09:09:13.053Z,58.20
2017-11-05T09:10:18.675Z,58.00
2017-11-05T09:11:25.016Z,58.00
2017-11-05T09:12:30.655Z,57.70
2017-11-05T09:13:36.890Z,57.70
2017-11-05T09:14:42.945Z,57.50
2017-11-05T09:15:48.892Z,57.20
2017-11-05T09:16:55.066Z,57.00
2017-11-05T09:18:01.724Z,57.00
2017-11-05T09:19:07.748Z,57.00
2017-11-05T09:20:13.522Z,57.10
2017-11-05T09:21:18.858Z,57.20
2017-11-05T09:22:24.898Z,57.40
2017-11-05T09:23:31.730Z,57.70
2017-11-05T09:24:38.335Z,58.00
2017-11-05T09:25:44.252Z,58.30
2017-11-05T09:26:50.318Z,58.40
2017-11-05T09:27:57.070Z,58.50
2017-11-05T09:29:04.458Z,58.40
2017-11-05T09:30:10.684Z,58.50
2017-11-05T09:31:16.930Z,58.60
2017-11-05T09:32:22.966Z,58.70
2017-11-05T09:33:29.631Z,58.70
2017-11-05T09:34:35.481Z,58.60
2017-11-05T09:35:41.331Z,58.30
2017-11-05T09:36:47.409Z,58.30
2017-11-05T09:37:53.379Z,57.90
2017-11-05T09:38:59.381Z,58.00
2017-11-05T09:40:05.788Z,58.30
2017-11-05T09:41:11.757Z,58.40
2017-11-05T09:42:17.735Z,58.30
2017-11-05T09:43:23.986Z,57.10
2017-11-05T09:44:29.969Z,56.30
2017-11-05T09:45:36.008Z,55.80
2017-11-05T09:46:41.971Z,55.70
2017-11-05T09:47:47.812Z,55.80
2017-11-05T09:48:53.474Z,55.70
2017-11-05T09:49:59.066Z,55.30
2017-11-05T09:51:04.804Z,55.00
2017-11-05T09:52:10.620Z,54.20
2017-11-05T09:53:16.482Z,53.60
2017-11-05T09:54:22.515Z,53.30
2017-11-05T09:55:28.462Z,53.20
2017-11-05T09:56:34.284Z,53.20
2017-11-05T09:57:40.102Z,53.10
2017-11-05T09:58:46.312Z,53.10
2017-11-05T09:59:52.260Z,53.00
2017-11-05T10:01:00.122Z,53.10
2017-11-05T10:02:06.926Z,52.90
2017-11-05T10:03:13.142Z,52.90
2017-11-05T10:04:19.297Z,52.70
2017-11-05T10:05:24.948Z,52.80
2017-11-05T10:06:32.277Z,52.90
2017-11-05T10:07:38.121Z,53.00
2017-11-05T10:08:43.939Z,53.00
2017-11-05T10:09:50.001Z,52.90
2017-11-05T10:10:57.542Z,53.00
2017-11-05T10:12:05.834Z,53.00
2017-11-05T10:13:12.558Z,52.90
2017-11-05T10:14:18.732Z,53.00
2017-11-05T10:15:27.893Z,53.30
2017-11-05T10:16:33.256Z,53.50
2017-11-05T10:17:38.830Z,53.90
2017-11-05T10:18:45.789Z,54.00
2017-11-05T10:19:51.086Z,54.20
2017-11-05T10:20:56.430Z,54.30
2017-11-05T10:22:02.036Z,54.40
2017-11-05T10:23:07.348Z,54.70
2017-11-05T10:24:12.589Z,54.50
2017-11-05T10:25:18.038Z,54.70
2017-11-05T21:04:42.361Z,52.20
2017-11-05T21:05:47.904Z,52.20
2017-11-05T21:06:55.370Z,52.40
2017-11-05T21:08:01.214Z,52.60
2017-11-05T21:09:06.534Z,52.80
2017-11-05T21:10:12.107Z,52.90
2017-11-05T21:11:18.831Z,53.20
2017-11-05T21:12:24.953Z,53.40
2017-11-05T21:13:30.279Z,53.70
2017-11-05T21:14:35.645Z,54.00
2017-11-05T21:15:41.282Z,54.50
2017-11-05T21:16:46.765Z,54.70
2017-11-05T21:17:52.125Z,54.90
2017-11-05T21:18:57.629Z,55.00
2017-11-05T21:20:03.560Z,55.10
2017-11-05T21:21:11.352Z,55.30
2017-11-05T21:22:18.110Z,55.40
2017-11-05T21:23:23.529Z,56.10
2017-11-05T21:24:28.956Z,55.60
2017-11-05T21:25:35.383Z,55.60
2017-11-05T21:26:42.052Z,55.80
2017-11-05T21:27:47.425Z,55.90
2017-11-05T21:28:52.381Z,55.90
2017-11-05T21:29:59.094Z,55.90
2017-11-05T21:31:04.659Z,56.00
2017-11-05T21:32:11.231Z,56.10
2017-11-05T21:33:17.367Z,56.20
2017-11-05T21:34:25.841Z,56.10
2017-11-05T21:35:31.195Z,56.10
2017-11-05T21:36:36.494Z,56.80
2017-11-05T21:37:41.877Z,56.20
2017-11-05T21:38:47.097Z,56.20
2017-11-05T21:39:53.354Z,56.20
2017-11-05T21:41:00.273Z,56.20
2017-11-05T21:42:07.809Z,56.30
2017-11-05T21:43:14.879Z,56.30
2017-11-05T21:44:21.600Z,56.30
2017-11-05T21:45:27.128Z,56.30
2017-11-05T21:46:36.167Z,56.40
2017-11-05T21:47:43.106Z,56.40
2017-11-05T21:48:50.445Z,56.40
2017-11-05T21:49:56.404Z,57.10
2017-11-05T21:51:03.539Z,56.40
2017-11-05T21:52:08.852Z,56.40
2017-11-05T21:53:16.698Z,56.50
2017-11-05T21:54:22.322Z,56.50
2017-11-05T21:55:28.375Z,56.50
2017-11-05T21:56:34.007Z,56.50
2017-11-05T21:57:40.557Z,56.50
2017-11-05T21:58:45.951Z,57.20
2017-11-05T21:59:51.343Z,56.60
2017-11-05T22:00:57.741Z,56.60
2017-11-05T22:02:04.147Z,56.60
2017-11-05T22:03:14.675Z,56.60
2017-11-05T22:04:22.298Z,56.60
2017-11-05T22:05:29.922Z,56.70
2017-11-05T22:06:35.701Z,56.70
2017-11-05T22:07:41.546Z,56.70
2017-11-05T22:08:47.136Z,56.70
2017-11-05T22:09:52.405Z,56.70
2017-11-05T22:11:00.583Z,56.70
2017-11-05T22:12:08.128Z,56.70
2017-11-05T22:13:15.435Z,56.70
2017-11-05T22:14:22.639Z,56.80
2017-11-05T22:15:28.785Z,56.80
2017-11-05T22:16:34.852Z,56.80
2017-11-05T22:17:40.018Z,56.80
2017-11-05T22:18:45.369Z,56.80
2017-11-05T22:19:52.870Z,56.80
2017-11-05T22:20:59.224Z,56.80
2017-11-05T22:22:04.547Z,56.80
2017-11-05T22:23:09.983Z,56.80
2017-11-05T22:24:15.344Z,56.80
2017-11-05T22:25:21.648Z,56.80
2017-11-05T22:26:27.212Z,56.80
2017-11-05T22:27:32.482Z,56.90
2017-11-05T22:28:39.404Z,56.90
2017-11-05T22:29:44.657Z,56.90
2017-11-05T22:30:50.080Z,56.80
2017-11-05T22:31:55.388Z,56.80
2017-11-05T22:33:00.934Z,56.80
2017-11-05T22:34:07.232Z,56.70
2017-11-05T22:35:12.723Z,56.70
2017-11-05T22:36:17.877Z,56.70
2017-11-05T22:37:23.375Z,56.60
2017-11-05T22:38:28.643Z,56.60
2017-11-05T22:39:33.700Z,56.50
2017-11-05T22:40:39.099Z,56.60
2017-11-05T22:41:44.211Z,56.60
2017-11-05T22:42:49.546Z,56.60
2017-11-05T22:43:55.521Z,56.60
2017-11-05T22:45:01.080Z,56.50
2017-11-05T22:46:06.495Z,56.50
2017-11-05T22:47:11.810Z,56.50
2017-11-05T22:48:17.318Z,56.40
2017-11-05T22:49:22.897Z,56.50
2017-11-05T22:50:28.109Z,56.40
2017-11-05T22:51:33.454Z,56.50
2017-11-05T22:52:38.532Z,56.50
2017-11-05T22:53:44.004Z,56.60
2017-11-05T22:54:49.414Z,56.70
2017-11-05T22:55:55.162Z,56.70
2017-11-05T22:57:00.615Z,56.80
2017-11-05T22:58:06.039Z,56.80
2017-11-05T22:59:11.393Z,56.80
2017-11-05T23:00:16.951Z,56.90
2017-11-05T23:01:22.105Z,56.90
2017-11-05T23:02:27.171Z,56.90
2017-11-05T23:03:32.466Z,56.90
2017-11-05T23:04:37.738Z,56.90
2017-11-05T23:05:42.937Z,57.00
2017-11-05T23:06:49.291Z,57.00
2017-11-05T23:07:54.311Z,57.00
2017-11-05T23:08:59.990Z,57.00
2017-11-05T23:10:05.173Z,57.10
2017-11-05T23:11:10.389Z,57.00
2017-11-05T23:12:15.597Z,57.10
2017-11-05T23:13:20.802Z,57.00
2017-11-05T23:14:26.391Z,57.00
2017-11-05T23:15:31.511Z,57.10
2017-11-05T23:16:36.786Z,57.10
2017-11-05T23:17:43.432Z,57.10
2017-11-05T23:18:48.797Z,57.20
2017-11-05T23:19:54.113Z,57.10
2017-11-05T23:20:59.387Z,57.10
2017-11-05T23:22:04.599Z,57.10
2017-11-05T23:23:10.445Z,57.10
2017-11-05T23:24:15.530Z,57.20
2017-11-05T23:25:20.549Z,57.20
2017-11-05T23:26:25.824Z,57.20
2017-11-05T23:27:31.099Z,57.10
2017-11-05T23:28:36.225Z,57.10
2017-11-05T23:29:41.458Z,57.20
2017-11-05T23:30:46.783Z,57.20
2017-11-05T23:31:52.067Z,57.20
2017-11-05T23:32:57.692Z,57.20
2017-11-05T23:34:03.719Z,57.20
2017-11-05T23:35:08.794Z,57.20
2017-11-05T23:36:13.995Z,57.20
2017-11-05T23:37:19.602Z,57.20
2017-11-05T23:38:24.761Z,57.20
2017-11-05T23:39:29.971Z,57.20
2017-11-05T23:40:35.338Z,57.20
2017-11-05T23:41:40.317Z,57.20
2017-11-05T23:42:46.165Z,57.20
2017-11-05T23:43:51.310Z,57.20
2017-11-05T23:44:56.387Z,57.20
2017-11-05T23:46:02.277Z,57.20
2017-11-05T23:47:07.367Z,57.30
2017-11-05T23:48:12.555Z,57.30
2017-11-05T23:49:17.659Z,57.30
2017-11-05T23:50:22.864Z,57.30
2017-11-05T23:51:28.567Z,57.30
2017-11-05T23:52:33.719Z,57.30
2017-11-05T23:53:38.916Z,57.30
2017-11-05T23:54:44.095Z,57.30
2017-11-05T23:55:49.113Z,57.30
2017-11-05T23:56:55.205Z,57.30
2017-11-05T23:58:00.314Z,57.40
2017-11-05T23:59:05.735Z,57.40
